createdAt,value
2022-12-18T00:08:10.950Z,-11.6
2022-12-18T00:18:07.458Z,-11.5
2022-12-18T00:38:12.516Z,-11.8
2022-12-18T00:48:15.148Z,-11.9
2022-12-18T01:08:18.709Z,-11.8
2022-12-18T01:18:20.781Z,-12.1
2022-12-18T01:28:23.183Z,-12.3
2022-12-18T01:38:32.795Z,-12
2022-12-18T01:48:27.828Z,-12.3
2022-12-18T01:58:29.516Z,-12.2
2022-12-18T02:08:31.729Z,-12.5
2022-12-18T02:18:33.474Z,-12.5
2022-12-18T02:28:35.502Z,-12.6
2022-12-18T02:38:44.512Z,-12.5
2022-12-18T02:58:41.126Z,-12.6
2022-12-18T03:08:43.271Z,-12.5
2022-12-18T03:18:45.546Z,-12.6
2022-12-18T03:28:48.277Z,-12.6
2022-12-18T03:38:50.282Z,-12.9
2022-12-18T03:48:52.902Z,-12.8
2022-12-18T03:58:54.819Z,-12.5
2022-12-18T04:08:57.428Z,-12.8
2022-12-18T04:20:26.937Z,-12.9
2022-12-18T04:29:01.695Z,-13.1
2022-12-18T04:39:03.788Z,-13
2022-12-18T04:59:09.166Z,-13.1
2022-12-18T05:09:10.939Z,-13
2022-12-18T05:19:13.328Z,-13
2022-12-18T05:29:22.697Z,-12.9
2022-12-18T05:39:18.241Z,-12.9
2022-12-18T05:49:20.516Z,-13
2022-12-18T05:59:22.563Z,-12.9
2022-12-18T06:09:31.253Z,-12.9
2022-12-18T06:19:26.167Z,-13
2022-12-18T06:30:55.921Z,-12.9
2022-12-18T06:39:37.860Z,-12.9
2022-12-18T06:59:35.147Z,-13
2022-12-18T07:09:37.566Z,-12.9
2022-12-18T07:19:39.987Z,-12.9
2022-12-18T07:29:42.214Z,-13
2022-12-18T07:39:44.094Z,-12.9
2022-12-18T07:49:46.388Z,-12.6
2022-12-18T07:59:48.897Z,-12.5
2022-12-18T08:09:50.766Z,-11.8
2022-12-18T08:19:53.021Z,-11.4
2022-12-18T08:29:55.999Z,-10.6
2022-12-18T08:39:57.664Z,-10.7
2022-12-18T08:49:59.748Z,-9.4
2022-12-18T09:00:09.417Z,-8.7
2022-12-18T09:10:04.563Z,-8.2
2022-12-18T09:21:34.799Z,-7.8
2022-12-18T09:30:09.479Z,-7.5
2022-12-18T09:40:11.910Z,-7
2022-12-18T09:50:17.225Z,-6.6
2022-12-18T10:00:23.093Z,-6.6
2022-12-18T10:10:17.865Z,-6.2
2022-12-18T10:20:19.815Z,-5.8
2022-12-18T10:30:29.324Z,-5.5
2022-12-18T10:40:31.997Z,-5.2
2022-12-18T10:50:40.892Z,-4.8
2022-12-18T11:00:35.566Z,-4.5
2022-12-18T11:10:30.644Z,-4.2
2022-12-18T11:20:32.669Z,-3.7
2022-12-18T11:30:34.544Z,-3.5
2022-12-18T11:40:41.015Z,-3.2
2022-12-18T11:50:38.878Z,-3
2022-12-18T12:00:47.697Z,-2.9
2022-12-18T12:10:42.950Z,-2.8
2022-12-18T12:20:45.197Z,-2.6
2022-12-18T12:30:47.600Z,-2.5
2022-12-18T12:40:53.679Z,-2.4
2022-12-18T12:50:52.169Z,-2.4
2022-12-18T13:00:54.157Z,-2.3
2022-12-18T13:10:56.152Z,-2.3
2022-12-18T13:21:01.501Z,-2.3
2022-12-18T13:31:00.452Z,-2.5
2022-12-18T13:41:03.213Z,-2.4
2022-12-18T13:51:04.539Z,-2.3
2022-12-18T14:01:06.561Z,-2.4
2022-12-18T14:11:08.360Z,-2.6
2022-12-18T14:21:10.162Z,-2.7
2022-12-18T14:31:12.800Z,-2.7
2022-12-18T14:42:42.354Z,-2.4
2022-12-18T14:51:17.104Z,-2.3
2022-12-18T15:01:18.988Z,-2.1
2022-12-18T15:11:20.545Z,-2.2
2022-12-18T15:21:23.184Z,-2.3
2022-12-18T15:31:25.309Z,-2.3
2022-12-18T15:41:27.434Z,-2.3
2022-12-18T16:01:32.009Z,-2.5
2022-12-18T16:11:34.247Z,-2.5
2022-12-18T16:21:36.024Z,-2.7
2022-12-18T16:31:38.081Z,-2.9
2022-12-18T16:41:40.568Z,-3.1
2022-12-18T16:53:09.794Z,-3.1
2022-12-18T17:01:44.658Z,-3
2022-12-18T17:11:47.072Z,-3
2022-12-18T17:21:48.466Z,-3.3
2022-12-18T17:31:51.125Z,-3.2
2022-12-18T17:41:53.492Z,-3.3
2022-12-18T17:51:55.261Z,-3.2
2022-12-18T18:33:31.435Z,-3.3
2022-12-18T18:52:08.810Z,-3.2
2022-12-18T19:02:18.335Z,-1.2
2022-12-18T19:12:12.940Z,-0.5
2022-12-18T19:22:22.138Z,-0.4
2022-12-18T19:32:17.686Z,-0.3
2022-12-18T19:42:25.020Z,-0.2
2022-12-18T19:53:51.437Z,-0.2
2022-12-18T20:02:24.823Z,0
2022-12-18T20:12:26.795Z,-0.1
2022-12-18T20:34:00.391Z,-0.3
2022-12-18T20:42:40.869Z,-0.2
2022-12-18T20:52:36.211Z,-0.1
2022-12-18T21:02:38.372Z,-0.1
2022-12-18T21:12:42.791Z,-0.1
2022-12-18T21:22:42.696Z,-0.1
2022-12-18T21:32:45.272Z,-0.1
2022-12-18T21:42:47.753Z,-0.2
2022-12-18T21:52:51.265Z,-0.2
2022-12-18T22:02:51.862Z,-0.2
2022-12-18T22:12:55.011Z,-0.2
2022-12-18T22:22:55.810Z,-0.2
2022-12-18T22:32:57.875Z,-0.2
2022-12-18T22:42:59.576Z,-0.3
2022-12-18T22:53:01.304Z,-0.3
2022-12-18T22:53:09.666Z,-0.3
2022-12-18T23:03:12.252Z,-0.2
2022-12-18T23:23:16.167Z,-0.1
2022-12-18T23:33:17.853Z,-0.2
2022-12-18T23:43:19.841Z,-0.2
2022-12-18T23:53:22.263Z,-0.3
